sensor_id;sensor_type;location;lat;lon;timestamp;pressure;altitude;pressure_sealevel;temperature;humidity
69245;BME280;56357;52.304;4.870;2023-07-29T00:01:05;100921.16;;;22.66;nan
69245;BME280;56357;52.304;4.870;2023-07-29T00:03:32;100917.44;;;22.84;nan
69245;BME280;56357;52.304;4.870;2023-07-29T00:05:58;100918.00;;;22.67;nan
69245;BME280;56357;52.304;4.870;2023-07-29T00:08:25;100915.91;;;22.59;nan
69245;BME280;56357;52.304;4.870;2023-07-29T00:10:51;100920.72;;;22.59;nan
69245;BME280;56357;52.304;4.870;2023-07-29T00:13:18;100923.44;;;22.64;nan
69245;BME280;56357;52.304;4.870;2023-07-29T00:15:44;100914.88;;;22.69;nan
69245;BME280;56357;52.304;4.870;2023-07-29T00:18:11;100909.22;;;22.69;nan
69245;BME280;56357;52.304;4.870;2023-07-29T00:20:38;100902.63;;;22.60;nan
69245;BME280;56357;52.304;4.870;2023-07-29T00:23:04;100911.00;;;22.65;nan
69245;BME280;56357;52.304;4.870;2023-07-29T00:25:31;100908.81;;;22.62;nan
69245;BME280;56357;52.304;4.870;2023-07-29T00:27:58;100904.53;;;22.64;nan
69245;BME280;56357;52.304;4.870;2023-07-29T00:30:25;100903.38;;;22.65;nan
69245;BME280;56357;52.304;4.870;2023-07-29T00:32:51;100900.66;;;22.60;nan
69245;BME280;56357;52.304;4.870;2023-07-29T00:35:18;100901.91;;;22.68;nan
69245;BME280;56357;52.304;4.870;2023-07-29T00:37:44;100899.19;;;22.77;nan
69245;BME280;56357;52.304;4.870;2023-07-29T00:40:16;100895.78;;;22.93;nan
69245;BME280;56357;52.304;4.870;2023-07-29T00:42:45;100901.22;;;22.76;nan
69245;BME280;56357;52.304;4.870;2023-07-29T00:45:11;100896.81;;;22.70;nan
69245;BME280;56357;52.304;4.870;2023-07-29T00:47:38;100890.41;;;22.64;nan
69245;BME280;56357;52.304;4.870;2023-07-29T00:50:09;100883.28;;;22.67;nan
69245;BME280;56357;52.304;4.870;2023-07-29T00:52:37;100890.19;;;22.74;nan
69245;BME280;56357;52.304;4.870;2023-07-29T00:55:04;100882.25;;;22.77;nan
69245;BME280;56357;52.304;4.870;2023-07-29T00:57:32;100890.94;;;22.66;nan
69245;BME280;56357;52.304;4.870;2023-07-29T01:00:00;100879.44;;;22.63;nan
69245;BME280;56357;52.304;4.870;2023-07-29T01:02:28;100884.78;;;22.64;nan
69245;BME280;56357;52.304;4.870;2023-07-29T01:04:58;100879.97;;;22.79;nan
69245;BME280;56357;52.304;4.870;2023-07-29T01:10:53;100866.50;;;22.89;nan
69245;BME280;56357;52.304;4.870;2023-07-29T01:13:28;100865.25;;;22.82;nan
69245;BME280;56357;52.304;4.870;2023-07-29T01:16:23;100870.44;;;22.74;nan
69245;BME280;56357;52.304;4.870;2023-07-29T01:18:53;100868.97;;;22.63;nan
69245;BME280;56357;52.304;4.870;2023-07-29T01:21:21;100860.44;;;22.82;nan
69245;BME280;56357;52.304;4.870;2023-07-29T01:23:52;100864.94;;;22.97;nan
69245;BME280;56357;52.304;4.870;2023-07-29T01:26:19;100870.75;;;22.73;nan
69245;BME280;56357;52.304;4.870;2023-07-29T01:28:46;100873.72;;;22.82;nan
69245;BME280;56357;52.304;4.870;2023-07-29T01:31:18;100872.25;;;22.70;nan
69245;BME280;56357;52.304;4.870;2023-07-29T01:33:58;100869.31;;;22.89;nan
69245;BME280;56357;52.304;4.870;2023-07-29T01:36:28;100872.88;;;22.81;nan
69245;BME280;56357;52.304;4.870;2023-07-29T01:38:56;100865.09;;;22.73;nan
69245;BME280;56357;52.304;4.870;2023-07-29T01:41:24;100855.41;;;22.79;nan
69245;BME280;56357;52.304;4.870;2023-07-29T01:43:52;100859.88;;;22.66;nan
69245;BME280;56357;52.304;4.870;2023-07-29T01:46:20;100861.22;;;22.69;nan
69245;BME280;56357;52.304;4.870;2023-07-29T01:48:46;100858.34;;;22.74;nan
69245;BME280;56357;52.304;4.870;2023-07-29T01:51:12;100856.44;;;22.83;nan
69245;BME280;56357;52.304;4.870;2023-07-29T01:53:39;100862.41;;;22.68;nan
69245;BME280;56357;52.304;4.870;2023-07-29T01:56:05;100858.84;;;22.62;nan
69245;BME280;56357;52.304;4.870;2023-07-29T01:58:32;100857.06;;;22.66;nan
69245;BME280;56357;52.304;4.870;2023-07-29T02:00:58;100849.41;;;22.67;nan
69245;BME280;56357;52.304;4.870;2023-07-29T02:03:25;100849.94;;;22.69;nan
69245;BME280;56357;52.304;4.870;2023-07-29T02:05:51;100856.94;;;22.58;nan
69245;BME280;56357;52.304;4.870;2023-07-29T02:08:17;100861.16;;;22.55;nan
69245;BME280;56357;52.304;4.870;2023-07-29T02:10:44;100857.94;;;22.48;nan
69245;BME280;56357;52.304;4.870;2023-07-29T02:13:11;100846.53;;;22.53;nan
69245;BME280;56357;52.304;4.870;2023-07-29T02:15:38;100837.16;;;22.58;nan
69245;BME280;56357;52.304;4.870;2023-07-29T02:18:04;100837.69;;;22.60;nan
69245;BME280;56357;52.304;4.870;2023-07-29T02:20:32;100834.44;;;22.53;nan
69245;BME280;56357;52.304;4.870;2023-07-29T02:22:58;100838.28;;;22.43;nan
69245;BME280;56357;52.304;4.870;2023-07-29T02:25:25;100835.75;;;22.42;nan
69245;BME280;56357;52.304;4.870;2023-07-29T02:27:52;100837.75;;;22.41;nan
69245;BME280;56357;52.304;4.870;2023-07-29T02:30:20;100845.19;;;22.51;nan
69245;BME280;56357;52.304;4.870;2023-07-29T02:32:46;100845.66;;;22.58;nan
69245;BME280;56357;52.304;4.870;2023-07-29T02:35:13;100843.50;;;22.50;nan
69245;BME280;56357;52.304;4.870;2023-07-29T02:37:39;100834.81;;;22.46;nan
69245;BME280;56357;52.304;4.870;2023-07-29T02:40:06;100846.84;;;22.52;nan
69245;BME280;56357;52.304;4.870;2023-07-29T02:42:33;100836.91;;;22.41;nan
69245;BME280;56357;52.304;4.870;2023-07-29T02:45:00;100838.59;;;22.55;nan
69245;BME280;56357;52.304;4.870;2023-07-29T02:47:27;100831.78;;;22.43;nan
69245;BME280;56357;52.304;4.870;2023-07-29T02:49:53;100838.56;;;22.42;nan
69245;BME280;56357;52.304;4.870;2023-07-29T02:52:19;100829.47;;;22.31;nan
69245;BME280;56357;52.304;4.870;2023-07-29T02:54:46;100835.00;;;22.36;nan
69245;BME280;56357;52.304;4.870;2023-07-29T02:57:13;100825.56;;;22.27;nan
69245;BME280;56357;52.304;4.870;2023-07-29T02:59:39;100822.78;;;22.41;nan
69245;BME280;56357;52.304;4.870;2023-07-29T03:02:06;100819.53;;;22.34;nan
69245;BME280;56357;52.304;4.870;2023-07-29T03:04:32;100822.75;;;22.27;nan
69245;BME280;56357;52.304;4.870;2023-07-29T03:06:59;100815.84;;;22.20;nan
69245;BME280;56357;52.304;4.870;2023-07-29T03:09:26;100808.13;;;22.25;nan
69245;BME280;56357;52.304;4.870;2023-07-29T03:11:52;100808.97;;;22.26;nan
69245;BME280;56357;52.304;4.870;2023-07-29T03:14:20;100802.25;;;22.22;nan
69245;BME280;56357;52.304;4.870;2023-07-29T03:16:47;100792.84;;;22.13;nan
69245;BME280;56357;52.304;4.870;2023-07-29T03:19:13;100789.91;;;22.18;nan
69245;BME280;56357;52.304;4.870;2023-07-29T03:21:40;100792.22;;;22.16;nan
69245;BME280;56357;52.304;4.870;2023-07-29T03:24:06;100799.31;;;22.13;nan
69245;BME280;56357;52.304;4.870;2023-07-29T03:26:33;100800.06;;;22.19;nan
69245;BME280;56357;52.304;4.870;2023-07-29T03:28:59;100814.78;;;22.16;nan
69245;BME280;56357;52.304;4.870;2023-07-29T03:31:26;100811.75;;;22.12;nan
69245;BME280;56357;52.304;4.870;2023-07-29T03:33:52;100815.00;;;22.19;nan
69245;BME280;56357;52.304;4.870;2023-07-29T03:36:20;100799.97;;;22.24;nan
69245;BME280;56357;52.304;4.870;2023-07-29T03:38:47;100786.34;;;22.12;nan
69245;BME280;56357;52.304;4.870;2023-07-29T03:41:13;100795.78;;;22.21;nan
69245;BME280;56357;52.304;4.870;2023-07-29T03:43:40;100806.63;;;22.14;nan
69245;BME280;56357;52.304;4.870;2023-07-29T03:46:06;100825.56;;;22.27;nan
69245;BME280;56357;52.304;4.870;2023-07-29T03:48:33;100827.13;;;22.20;nan
69245;BME280;56357;52.304;4.870;2023-07-29T03:50:59;100826.06;;;22.16;nan
69245;BME280;56357;52.304;4.870;2023-07-29T03:53:26;100824.44;;;22.28;nan
69245;BME280;56357;52.304;4.870;2023-07-29T03:55:52;100827.44;;;22.18;nan
69245;BME280;56357;52.304;4.870;2023-07-29T03:58:19;100811.84;;;22.21;nan
69245;BME280;56357;52.304;4.870;2023-07-29T04:00:45;100829.47;;;22.31;nan
69245;BME280;56357;52.304;4.870;2023-07-29T04:03:12;100826.53;;;22.36;nan
69245;BME280;56357;52.304;4.870;2023-07-29T04:05:38;100809.28;;;22.24;nan
69245;BME280;56357;52.304;4.870;2023-07-29T04:08:05;100807.81;;;22.27;nan
69245;BME280;56357;52.304;4.870;2023-07-29T04:10:31;100814.09;;;22.24;nan
69245;BME280;56357;52.304;4.870;2023-07-29T04:13:00;100823.16;;;22.21;nan
69245;BME280;56357;52.304;4.870;2023-07-29T04:15:26;100827.28;;;22.28;nan
69245;BME280;56357;52.304;4.870;2023-07-29T04:17:53;100826.06;;;22.16;nan
69245;BME280;56357;52.304;4.870;2023-07-29T04:20:19;100817.31;;;22.31;nan
69245;BME280;56357;52.304;4.870;2023-07-29T04:22:46;100820.69;;;22.33;nan
69245;BME280;56357;52.304;4.870;2023-07-29T04:25:12;100815.53;;;22.21;nan
69245;BME280;56357;52.304;4.870;2023-07-29T04:27:39;100811.84;;;22.21;nan
69245;BME280;56357;52.304;4.870;2023-07-29T04:30:06;100807.63;;;22.37;nan
69245;BME280;56357;52.304;4.870;2023-07-29T04:32:32;100817.50;;;22.21;nan
69245;BME280;56357;52.304;4.870;2023-07-29T04:34:59;100824.03;;;22.35;nan
69245;BME280;56357;52.304;4.870;2023-07-29T04:37:25;100815.03;;;22.33;nan
69245;BME280;56357;52.304;4.870;2023-07-29T04:39:52;100819.72;;;22.24;nan
69245;BME280;56357;52.304;4.870;2023-07-29T04:42:18;100813.16;;;22.28;nan
69245;BME280;56357;52.304;4.870;2023-07-29T04:44:45;100821.28;;;22.16;nan
69245;BME280;56357;52.304;4.870;2023-07-29T04:47:11;100813.34;;;22.18;nan
69245;BME280;56357;52.304;4.870;2023-07-29T04:49:38;100818.38;;;22.35;nan
69245;BME280;56357;52.304;4.870;2023-07-29T04:52:04;100822.84;;;22.22;nan
69245;BME280;56357;52.304;4.870;2023-07-29T04:54:31;100821.81;;;22.18;nan
69245;BME280;56357;52.304;4.870;2023-07-29T04:56:57;100816.28;;;22.27;nan
69245;BME280;56357;52.304;4.870;2023-07-29T04:59:24;100827.28;;;22.28;nan
69245;BME280;56357;52.304;4.870;2023-07-29T05:01:51;100829.84;;;22.25;nan
69245;BME280;56357;52.304;4.870;2023-07-29T05:04:17;100824.09;;;22.16;nan
69245;BME280;56357;52.304;4.870;2023-07-29T05:06:43;100822.53;;;22.24;nan
69245;BME280;56357;52.304;4.870;2023-07-29T05:09:15;100827.56;;;22.27;nan
69245;BME280;56357;52.304;4.870;2023-07-29T05:11:42;100831.56;;;22.39;nan
69245;BME280;56357;52.304;4.870;2023-07-29T05:14:10;100834.25;;;22.31;nan
69245;BME280;56357;52.304;4.870;2023-07-29T05:16:37;100832.28;;;22.31;nan
69245;BME280;56357;52.304;4.870;2023-07-29T05:19:04;100837.69;;;22.60;nan
69245;BME280;56357;52.304;4.870;2023-07-29T05:21:30;100829.69;;;22.48;nan
69245;BME280;56357;52.304;4.870;2023-07-29T05:23:57;100830.31;;;22.32;nan
69245;BME280;56357;52.304;4.870;2023-07-29T05:26:23;100834.78;;;22.33;nan
69245;BME280;56357;52.304;4.870;2023-07-29T05:28:50;100831.03;;;22.37;nan
69245;BME280;56357;52.304;4.870;2023-07-29T05:31:17;100827.38;;;22.37;nan
69245;BME280;56357;52.304;4.870;2023-07-29T05:33:43;100827.06;;;22.38;nan
69245;BME280;56357;52.304;4.870;2023-07-29T05:36:09;100816.50;;;22.44;nan
69245;BME280;56357;52.304;4.870;2023-07-29T05:38:36;100831.41;;;22.49;nan
69245;BME280;56357;52.304;4.870;2023-07-29T05:41:02;100835.53;;;22.38;nan
69245;BME280;56357;52.304;4.870;2023-07-29T05:43:29;100824.88;;;22.35;nan
69245;BME280;56357;52.304;4.870;2023-07-29T05:45:55;100824.34;;;22.33;nan
69245;BME280;56357;52.304;4.870;2023-07-29T05:48:22;100818.09;;;22.50;nan
69245;BME280;56357;52.304;4.870;2023-07-29T05:50:48;100818.41;;;22.48;nan
69245;BME280;56357;52.304;4.870;2023-07-29T05:53:15;100823.59;;;22.60;nan
69245;BME280;56357;52.304;4.870;2023-07-29T05:55:42;100817.75;;;22.70;nan
69245;BME280;56357;52.304;4.870;2023-07-29T05:58:08;100828.16;;;22.56;nan
69245;BME280;56357;52.304;4.870;2023-07-29T06:00:35;100837.69;;;22.60;nan
69245;BME280;56357;52.304;4.870;2023-07-29T06:03:02;100834.03;;;22.59;nan
69245;BME280;56357;52.304;4.870;2023-07-29T06:05:28;100824.06;;;22.48;nan
69245;BME280;56357;52.304;4.870;2023-07-29T06:07:54;100815.81;;;22.52;nan
69245;BME280;56357;52.304;4.870;2023-07-29T06:10:21;100830.56;;;22.49;nan
69245;BME280;56357;52.304;4.870;2023-07-29T06:12:48;100829.19;;;22.46;nan
69245;BME280;56357;52.304;4.870;2023-07-29T06:15:14;100827.03;;;22.57;nan
69245;BME280;56357;52.304;4.870;2023-07-29T06:17:41;100831.59;;;22.53;nan
69245;BME280;56357;52.304;4.870;2023-07-29T06:20:07;100826.19;;;22.56;nan
69245;BME280;56357;52.304;4.870;2023-07-29T06:22:34;100840.31;;;22.56;nan
69245;BME280;56357;52.304;4.870;2023-07-29T06:25:01;100831.56;;;22.71;nan
69245;BME280;56357;52.304;4.870;2023-07-29T06:27:27;100847.22;;;22.64;nan
69245;BME280;56357;52.304;4.870;2023-07-29T06:29:54;100849.00;;;22.60;nan
69245;BME280;56357;52.304;4.870;2023-07-29T06:32:20;100847.91;;;22.56;nan
69245;BME280;56357;52.304;4.870;2023-07-29T06:34:47;100849.72;;;22.65;nan
69245;BME280;56357;52.304;4.870;2023-07-29T06:37:13;100845.66;;;22.58;nan
69245;BME280;56357;52.304;4.870;2023-07-29T06:39:39;100846.53;;;22.53;nan
69245;BME280;56357;52.304;4.870;2023-07-29T06:42:06;100848.31;;;22.49;nan
69245;BME280;56357;52.304;4.870;2023-07-29T06:44:32;100853.66;;;22.51;nan
69245;BME280;56357;52.304;4.870;2023-07-29T06:46:59;100848.06;;;22.64;nan
69245;BME280;56357;52.304;4.870;2023-07-29T06:49:26;100847.56;;;22.76;nan
69245;BME280;56357;52.304;4.870;2023-07-29T06:51:52;100842.94;;;22.66;nan
69245;BME280;56357;52.304;4.870;2023-07-29T06:54:19;100853.41;;;22.66;nan
69245;BME280;56357;52.304;4.870;2023-07-29T06:56:50;100852.22;;;22.67;nan
69245;BME280;56357;52.304;4.870;2023-07-29T06:59:16;100855.28;;;22.70;nan
69245;BME280;56357;52.304;4.870;2023-07-29T07:01:42;100851.31;;;22.85;nan
69245;BME280;56357;52.304;4.870;2023-07-29T07:04:09;100853.00;;;22.73;nan
69245;BME280;56357;52.304;4.870;2023-07-29T07:06:35;100851.09;;;22.68;nan
69245;BME280;56357;52.304;4.870;2023-07-29T07:09:02;100836.28;;;22.90;nan
69245;BME280;56357;52.304;4.870;2023-07-29T07:11:29;100847.34;;;22.86;nan
69245;BME280;56357;52.304;4.870;2023-07-29T07:13:55;100843.69;;;22.86;nan
69245;BME280;56357;52.304;4.870;2023-07-29T07:16:21;100833.25;;;22.73;nan
69245;BME280;56357;52.304;4.870;2023-07-29T07:18:48;100837.50;;;22.70;nan
69245;BME280;56357;52.304;4.870;2023-07-29T07:21:14;100841.81;;;22.81;nan
69245;BME280;56357;52.304;4.870;2023-07-29T07:23:41;100838.47;;;22.93;nan
69245;BME280;56357;52.304;4.870;2023-07-29T07:26:07;100839.84;;;22.95;nan
69245;BME280;56357;52.304;4.870;2023-07-29T07:28:34;100842.00;;;22.98;nan
69245;BME280;56357;52.304;4.870;2023-07-29T07:31:00;100838.78;;;23.05;nan
69245;BME280;56357;52.304;4.870;2023-07-29T07:33:27;100837.09;;;23.04;nan
69245;BME280;56357;52.304;4.870;2023-07-29T07:35:53;100850.69;;;23.02;nan
69245;BME280;56357;52.304;4.870;2023-07-29T07:38:20;100841.41;;;23.01;nan
69245;BME280;56357;52.304;4.870;2023-07-29T07:40:54;100840.56;;;22.87;nan
69245;BME280;56357;52.304;4.870;2023-07-29T07:43:22;100849.97;;;22.83;nan
69245;BME280;56357;52.304;4.870;2023-07-29T07:45:48;100847.34;;;22.86;nan
69245;BME280;56357;52.304;4.870;2023-07-29T07:48:15;100852.06;;;22.91;nan
69245;BME280;56357;52.304;4.870;2023-07-29T07:50:42;100850.50;;;22.98;nan
69245;BME280;56357;52.304;4.870;2023-07-29T07:53:09;100862.22;;;23.05;nan
69245;BME280;56357;52.304;4.870;2023-07-29T07:55:35;100862.00;;;23.15;nan
69245;BME280;56357;52.304;4.870;2023-07-29T07:58:01;100862.97;;;23.11;nan
69245;BME280;56357;52.304;4.870;2023-07-29T08:00:28;100863.25;;;23.23;nan
69245;BME280;56357;52.304;4.870;2023-07-29T08:02:54;100849.47;;;23.35;nan
69245;BME280;56357;52.304;4.870;2023-07-29T08:05:21;100867.03;;;23.45;nan
69245;BME280;56357;52.304;4.870;2023-07-29T08:07:47;100866.63;;;23.38;nan
69245;BME280;56357;52.304;4.870;2023-07-29T08:10:13;100864.44;;;23.35;nan
69245;BME280;56357;52.304;4.870;2023-07-29T08:12:40;100869.25;;;23.35;nan
69245;BME280;56357;52.304;4.870;2023-07-29T08:15:07;100876.34;;;23.32;nan
69245;BME280;56357;52.304;4.870;2023-07-29T08:17:33;100879.25;;;23.27;nan
69245;BME280;56357;52.304;4.870;2023-07-29T08:19:59;100880.44;;;23.26;nan
69245;BME280;56357;52.304;4.870;2023-07-29T08:22:26;100882.22;;;23.22;nan
69245;BME280;56357;52.304;4.870;2023-07-29T08:24:52;100887.13;;;23.30;nan
69245;BME280;56357;52.304;4.870;2023-07-29T08:27:19;100891.94;;;23.30;nan
69245;BME280;56357;52.304;4.870;2023-07-29T08:29:45;100885.84;;;23.23;nan
69245;BME280;56357;52.304;4.870;2023-07-29T08:32:12;100889.19;;;23.25;nan
69245;BME280;56357;52.304;4.870;2023-07-29T08:34:38;100893.59;;;23.17;nan
69245;BME280;56357;52.304;4.870;2023-07-29T08:37:05;100878.34;;;23.18;nan
69245;BME280;56357;52.304;4.870;2023-07-29T08:39:31;100880.91;;;23.28;nan
69245;BME280;56357;52.304;4.870;2023-07-29T08:42:03;100881.78;;;23.29;nan
69245;BME280;56357;52.304;4.870;2023-07-29T08:44:36;100888.91;;;23.26;nan
69245;BME280;56357;52.304;4.870;2023-07-29T08:47:06;100887.22;;;23.25;nan
69245;BME280;56357;52.304;4.870;2023-07-29T08:49:33;100891.72;;;23.26;nan
69245;BME280;56357;52.304;4.870;2023-07-29T08:52:00;100885.44;;;23.29;nan
69245;BME280;56357;52.304;4.870;2023-07-29T08:54:27;100892.56;;;23.27;nan
69245;BME280;56357;52.304;4.870;2023-07-29T08:56:53;100895.91;;;23.15;nan
69245;BME280;56357;52.304;4.870;2023-07-29T08:59:20;100896.75;;;23.16;nan
69245;BME280;56357;52.304;4.870;2023-07-29T09:01:47;100885.03;;;23.09;nan
69245;BME280;56357;52.304;4.870;2023-07-29T09:04:14;100895.69;;;23.12;nan
69245;BME280;56357;52.304;4.870;2023-07-29T09:06:43;100895.50;;;23.08;nan
69245;BME280;56357;52.304;4.870;2023-07-29T09:09:09;100900.94;;;23.18;nan
69245;BME280;56357;52.304;4.870;2023-07-29T09:11:36;100902.78;;;23.09;nan
69245;BME280;56357;52.304;4.870;2023-07-29T09:14:02;100914.44;;;23.21;nan
69245;BME280;56357;52.304;4.870;2023-07-29T09:16:29;100903.25;;;23.16;nan
69245;BME280;56357;52.304;4.870;2023-07-29T09:19:00;100901.03;;;23.27;nan
69245;BME280;56357;52.304;4.870;2023-07-29T09:21:27;100899.47;;;23.34;nan
69245;BME280;56357;52.304;4.870;2023-07-29T09:23:54;100898.41;;;23.57;nan
69245;BME280;56357;52.304;4.870;2023-07-29T09:26:28;100895.69;;;23.66;nan
69245;BME280;56357;52.304;4.870;2023-07-29T09:28:56;100893.34;;;23.82;nan
69245;BME280;56357;52.304;4.870;2023-07-29T09:31:25;100886.72;;;23.86;nan
69245;BME280;56357;52.304;4.870;2023-07-29T09:33:59;100885.50;;;23.79;nan
69245;BME280;56357;52.304;4.870;2023-07-29T09:36:26;100899.03;;;23.68;nan
69245;BME280;56357;52.304;4.870;2023-07-29T09:38:54;100888.97;;;23.76;nan
69245;BME280;56357;52.304;4.870;2023-07-29T09:41:25;100895.00;;;23.83;nan
69245;BME280;56357;52.304;4.870;2023-07-29T09:44:03;100887.19;;;23.80;nan
69245;BME280;56357;52.304;4.870;2023-07-29T09:46:37;100892.50;;;23.81;nan
69245;BME280;56357;52.304;4.870;2023-07-29T09:49:05;100884.97;;;23.77;nan
69245;BME280;56357;52.304;4.870;2023-07-29T09:51:31;100881.28;;;23.90;nan
69245;BME280;56357;52.304;4.870;2023-07-29T09:54:02;100880.34;;;23.81;nan
69245;BME280;56357;52.304;4.870;2023-07-29T09:56:29;100880.25;;;23.86;nan
69245;BME280;56357;52.304;4.870;2023-07-29T09:58:57;100889.84;;;23.98;nan
69245;BME280;56357;52.304;4.870;2023-07-29T10:01:24;100895.22;;;23.86;nan
69245;BME280;56357;52.304;4.870;2023-07-29T10:03:51;100889.56;;;23.86;nan
69245;BME280;56357;52.304;4.870;2023-07-29T10:06:18;100901.50;;;23.83;nan
69245;BME280;56357;52.304;4.870;2023-07-29T10:08:45;100901.63;;;23.92;nan
69245;BME280;56357;52.304;4.870;2023-07-29T10:11:11;100898.50;;;23.80;nan
69245;BME280;56357;52.304;4.870;2023-07-29T10:13:39;100887.03;;;23.85;nan
69245;BME280;56357;52.304;4.870;2023-07-29T10:16:05;100885.25;;;23.89;nan
69245;BME280;56357;52.304;4.870;2023-07-29T10:18:33;100886.97;;;23.76;nan
69245;BME280;56357;52.304;4.870;2023-07-29T10:21:01;100894.41;;;23.86;nan
69245;BME280;56357;52.304;4.870;2023-07-29T10:23:32;100901.09;;;23.90;nan
69245;BME280;56357;52.304;4.870;2023-07-29T10:26:05;100904.03;;;23.85;nan
69245;BME280;56357;52.304;4.870;2023-07-29T10:28:32;100908.22;;;23.87;nan
69245;BME280;56357;52.304;4.870;2023-07-29T10:31:00;100900.66;;;23.83;nan
69245;BME280;56357;52.304;4.870;2023-07-29T10:33:27;100912.44;;;23.76;nan
69245;BME280;56357;52.304;4.870;2023-07-29T10:35:54;100907.53;;;23.68;nan
69245;BME280;56357;52.304;4.870;2023-07-29T10:38:22;100903.84;;;23.68;nan
69245;BME280;56357;52.304;4.870;2023-07-29T10:40:54;100906.31;;;23.83;nan
69245;BME280;56357;52.304;4.870;2023-07-29T10:43:25;100906.31;;;23.83;nan
69245;BME280;56357;52.304;4.870;2023-07-29T10:45:53;100914.59;;;23.93;nan
69245;BME280;56357;52.304;4.870;2023-07-29T10:51:30;100913.66;;;23.97;nan
69245;BME280;56357;52.304;4.870;2023-07-29T10:54:02;100905.97;;;23.98;nan
69245;BME280;56357;52.304;4.870;2023-07-29T10:56:37;100905.44;;;23.96;nan
69245;BME280;56357;52.304;4.870;2023-07-29T11:01:40;100917.81;;;24.00;nan
69245;BME280;56357;52.304;4.870;2023-07-29T11:09:45;100913.03;;;23.87;nan
69245;BME280;56357;52.304;4.870;2023-07-29T11:12:43;100914.59;;;23.93;nan
69245;BME280;56357;52.304;4.870;2023-07-29T11:17:58;100915.09;;;23.95;nan
69245;BME280;56357;52.304;4.870;2023-07-29T11:20:29;100901.28;;;24.07;nan
69245;BME280;56357;52.304;4.870;2023-07-29T11:22:58;100902.94;;;24.08;nan
69245;BME280;56357;52.304;4.870;2023-07-29T11:25:27;100901.47;;;24.10;nan
69245;BME280;56357;52.304;4.870;2023-07-29T11:27:55;100907.69;;;24.21;nan
69245;BME280;56357;52.304;4.870;2023-07-29T11:30:22;100903.22;;;24.20;nan
69245;BME280;56357;52.304;4.870;2023-07-29T11:32:53;100893.31;;;24.09;nan
69245;BME280;56357;52.304;4.870;2023-07-29T11:35:20;100911.50;;;24.16;nan
69245;BME280;56357;52.304;4.870;2023-07-29T11:37:48;100894.34;;;24.13;nan
69245;BME280;56357;52.304;4.870;2023-07-29T11:40:17;100891.00;;;24.11;nan
69245;BME280;56357;52.304;4.870;2023-07-29T11:42:44;100896.94;;;24.09;nan
69245;BME280;56357;52.304;4.870;2023-07-29T11:45:12;100893.94;;;24.06;nan
69245;BME280;56357;52.304;4.870;2023-07-29T11:47:39;100896.34;;;23.99;nan
69245;BME280;56357;52.304;4.870;2023-07-29T11:50:10;100896.72;;;23.84;nan
69245;BME280;56357;52.304;4.870;2023-07-29T11:52:40;100906.63;;;23.95;nan
69245;BME280;56357;52.304;4.870;2023-07-29T11:55:08;100912.63;;;23.80;nan
69245;BME280;56357;52.304;4.870;2023-07-29T11:57:38;100919.34;;;23.70;nan
69245;BME280;56357;52.304;4.870;2023-07-29T12:00:07;100925.22;;;23.74;nan
69245;BME280;56357;52.304;4.870;2023-07-29T12:02:39;100934.09;;;23.81;nan
69245;BME280;56357;52.304;4.870;2023-07-29T12:05:07;100930.66;;;23.84;nan
69245;BME280;56357;52.304;4.870;2023-07-29T12:07:35;100931.47;;;23.71;nan
69245;BME280;56357;52.304;4.870;2023-07-29T12:10:02;100927.00;;;23.70;nan
69245;BME280;56357;52.304;4.870;2023-07-29T12:12:29;100934.97;;;23.68;nan
69245;BME280;56357;52.304;4.870;2023-07-29T12:14:56;100936.13;;;23.67;nan
69245;BME280;56357;52.304;4.870;2023-07-29T12:17:22;100926.88;;;23.75;nan
69245;BME280;56357;52.304;4.870;2023-07-29T12:19:49;100921.91;;;23.94;nan
69245;BME280;56357;52.304;4.870;2023-07-29T12:22:18;100916.47;;;23.97;nan
69245;BME280;56357;52.304;4.870;2023-07-29T12:24:45;100914.91;;;24.05;nan
69245;BME280;56357;52.304;4.870;2023-07-29T12:27:13;100909.38;;;24.22;nan
69245;BME280;56357;52.304;4.870;2023-07-29T12:29:43;100908.97;;;24.15;nan
69245;BME280;56357;52.304;4.870;2023-07-29T12:32:11;100907.69;;;24.21;nan
69245;BME280;56357;52.304;4.870;2023-07-29T12:34:39;100906.84;;;24.34;nan
69245;BME280;56357;52.304;4.870;2023-07-29T12:37:06;100902.50;;;24.36;nan
69245;BME280;56357;52.304;4.870;2023-07-29T12:39:35;100898.44;;;24.07;nan
69245;BME280;56357;52.304;4.870;2023-07-29T12:42:02;100901.00;;;24.17;nan
69245;BME280;56357;52.304;4.870;2023-07-29T12:44:31;100906.03;;;24.20;nan
69245;BME280;56357;52.304;4.870;2023-07-29T12:47:04;100905.72;;;24.21;nan
69245;BME280;56357;52.304;4.870;2023-07-29T12:49:31;100905.13;;;24.33;nan
69245;BME280;56357;52.304;4.870;2023-07-29T12:51:58;100902.75;;;24.26;nan
69245;BME280;56357;52.304;4.870;2023-07-29T12:54:25;100907.03;;;24.37;nan
69245;BME280;56357;52.304;4.870;2023-07-29T12:56:51;100899.22;;;24.43;nan
69245;BME280;56357;52.304;4.870;2023-07-29T12:59:18;100899.59;;;24.50;nan
69245;BME280;56357;52.304;4.870;2023-07-29T13:01:45;100897.75;;;24.45;nan
69245;BME280;56357;52.304;4.870;2023-07-29T13:04:12;100903.28;;;24.50;nan
69245;BME280;56357;52.304;4.870;2023-07-29T13:06:38;100903.91;;;24.47;nan
69245;BME280;56357;52.304;4.870;2023-07-29T13:09:05;100909.38;;;24.66;nan
69245;BME280;56357;52.304;4.870;2023-07-29T13:11:32;100906.94;;;24.73;nan
69245;BME280;56357;52.304;4.870;2023-07-29T13:13:58;100901.47;;;24.77;nan
69245;BME280;56357;52.304;4.870;2023-07-29T13:16:26;100902.31;;;24.77;nan
69245;BME280;56357;52.304;4.870;2023-07-29T13:18:52;100903.84;;;24.83;nan
69245;BME280;56357;52.304;4.870;2023-07-29T13:21:19;100909.25;;;24.93;nan
69245;BME280;56357;52.304;4.870;2023-07-29T13:23:45;100904.03;;;24.87;nan
69245;BME280;56357;52.304;4.870;2023-07-29T13:26:12;100892.53;;;24.83;nan
69245;BME280;56357;52.304;4.870;2023-07-29T13:28:38;100906.34;;;24.85;nan